sensor_id;sensor_type;location;lat;lon;timestamp;P1;durP1;ratioP1;P2;durP2;ratioP2
11988;SDS011;6054;50.966;7.094;2023-09-08T00:02:17;5.07;;;4.63;;
11988;SDS011;6054;50.966;7.094;2023-09-08T00:04:44;7.80;;;4.78;;
11988;SDS011;6054;50.966;7.094;2023-09-08T00:07:13;6.63;;;4.57;;
11988;SDS011;6054;50.966;7.094;2023-09-08T00:09:40;6.38;;;4.30;;
11988;SDS011;6054;50.966;7.094;2023-09-08T00:12:07;4.32;;;4.03;;
11988;SDS011;6054;50.966;7.094;2023-09-08T00:14:33;7.32;;;4.28;;
11988;SDS011;6054;50.966;7.094;2023-09-08T00:17:00;6.78;;;4.35;;
11988;SDS011;6054;50.966;7.094;2023-09-08T00:19:27;4.72;;;4.25;;
11988;SDS011;6054;50.966;7.094;2023-09-08T00:21:54;4.53;;;3.83;;
11988;SDS011;6054;50.966;7.094;2023-09-08T00:24:22;4.40;;;4.00;;
11988;SDS011;6054;50.966;7.094;2023-09-08T00:26:48;4.53;;;4.22;;
11988;SDS011;6054;50.966;7.094;2023-09-08T00:29:15;4.45;;;4.10;;
11988;SDS011;6054;50.966;7.094;2023-09-08T00:31:42;5.13;;;4.43;;
11988;SDS011;6054;50.966;7.094;2023-09-08T00:34:09;5.18;;;4.38;;
11988;SDS011;6054;50.966;7.094;2023-09-08T00:36:36;4.28;;;3.92;;
11988;SDS011;6054;50.966;7.094;2023-09-08T00:39:03;5.03;;;4.53;;
11988;SDS011;6054;50.966;7.094;2023-09-08T00:41:31;5.35;;;4.63;;
11988;SDS011;6054;50.966;7.094;2023-09-08T00:43:58;5.15;;;4.70;;
11988;SDS011;6054;50.966;7.094;2023-09-08T00:46:25;5.50;;;4.00;;
11988;SDS011;6054;50.966;7.094;2023-09-08T00:48:52;5.32;;;3.97;;
11988;SDS011;6054;50.966;7.094;2023-09-08T00:51:19;6.97;;;4.20;;
11988;SDS011;6054;50.966;7.094;2023-09-08T00:53:47;7.50;;;4.07;;
11988;SDS011;6054;50.966;7.094;2023-09-08T00:56:14;5.25;;;3.78;;
11988;SDS011;6054;50.966;7.094;2023-09-08T00:58:42;5.97;;;4.13;;
11988;SDS011;6054;50.966;7.094;2023-09-08T01:01:09;5.55;;;4.45;;
11988;SDS011;6054;50.966;7.094;2023-09-08T01:03:36;4.78;;;4.35;;
11988;SDS011;6054;50.966;7.094;2023-09-08T01:06:03;5.30;;;4.30;;
11988;SDS011;6054;50.966;7.094;2023-09-08T01:08:31;5.50;;;4.72;;
11988;SDS011;6054;50.966;7.094;2023-09-08T01:10:57;5.30;;;4.50;;
11988;SDS011;6054;50.966;7.094;2023-09-08T01:13:24;4.80;;;4.30;;
11988;SDS011;6054;50.966;7.094;2023-09-08T01:15:52;5.80;;;4.25;;
11988;SDS011;6054;50.966;7.094;2023-09-08T01:18:19;4.55;;;4.15;;
11988;SDS011;6054;50.966;7.094;2023-09-08T01:20:56;4.57;;;4.18;;
11988;SDS011;6054;50.966;7.094;2023-09-08T01:23:53;4.60;;;4.20;;
11988;SDS011;6054;50.966;7.094;2023-09-08T01:26:34;5.00;;;4.50;;
11988;SDS011;6054;50.966;7.094;2023-09-08T01:29:05;5.68;;;4.53;;
11988;SDS011;6054;50.966;7.094;2023-09-08T01:31:32;4.70;;;4.40;;
11988;SDS011;6054;50.966;7.094;2023-09-08T01:33:59;4.55;;;4.18;;
11988;SDS011;6054;50.966;7.094;2023-09-08T01:36:29;4.75;;;4.20;;
11988;SDS011;6054;50.966;7.094;2023-09-08T01:38:56;7.00;;;4.30;;
11988;SDS011;6054;50.966;7.094;2023-09-08T01:41:23;4.90;;;4.00;;
11988;SDS011;6054;50.966;7.094;2023-09-08T01:43:51;4.93;;;4.43;;
11988;SDS011;6054;50.966;7.094;2023-09-08T01:46:18;5.53;;;4.22;;
11988;SDS011;6054;50.966;7.094;2023-09-08T01:48:44;4.50;;;3.92;;
11988;SDS011;6054;50.966;7.094;2023-09-08T01:51:11;4.97;;;3.83;;
11988;SDS011;6054;50.966;7.094;2023-09-08T01:53:38;4.20;;;3.90;;
11988;SDS011;6054;50.966;7.094;2023-09-08T01:56:04;3.90;;;3.53;;
11988;SDS011;6054;50.966;7.094;2023-09-08T01:58:31;4.30;;;4.00;;
11988;SDS011;6054;50.966;7.094;2023-09-08T02:01:00;5.65;;;4.43;;
11988;SDS011;6054;50.966;7.094;2023-09-08T02:03:30;4.38;;;3.97;;
11988;SDS011;6054;50.966;7.094;2023-09-08T02:05:57;5.47;;;3.88;;
11988;SDS011;6054;50.966;7.094;2023-09-08T02:08:24;4.25;;;3.95;;
11988;SDS011;6054;50.966;7.094;2023-09-08T02:10:51;4.43;;;3.95;;
11988;SDS011;6054;50.966;7.094;2023-09-08T02:13:17;6.72;;;4.45;;
11988;SDS011;6054;50.966;7.094;2023-09-08T02:15:44;5.10;;;4.47;;
11988;SDS011;6054;50.966;7.094;2023-09-08T02:18:12;4.28;;;3.88;;
11988;SDS011;6054;50.966;7.094;2023-09-08T02:20:40;5.60;;;4.18;;
11988;SDS011;6054;50.966;7.094;2023-09-08T02:23:06;5.95;;;4.40;;
11988;SDS011;6054;50.966;7.094;2023-09-08T02:25:33;7.28;;;4.20;;
11988;SDS011;6054;50.966;7.094;2023-09-08T02:28:00;5.25;;;4.35;;
11988;SDS011;6054;50.966;7.094;2023-09-08T02:30:26;5.90;;;4.18;;
11988;SDS011;6054;50.966;7.094;2023-09-08T02:32:53;4.65;;;4.25;;
11988;SDS011;6054;50.966;7.094;2023-09-08T02:35:22;4.57;;;3.78;;
11988;SDS011;6054;50.966;7.094;2023-09-08T02:37:49;5.47;;;4.20;;
11988;SDS011;6054;50.966;7.094;2023-09-08T02:40:16;4.05;;;3.75;;
11988;SDS011;6054;50.966;7.094;2023-09-08T02:42:44;5.18;;;4.53;;
11988;SDS011;6054;50.966;7.094;2023-09-08T02:45:10;4.13;;;3.75;;
11988;SDS011;6054;50.966;7.094;2023-09-08T02:47:37;4.40;;;4.00;;
11988;SDS011;6054;50.966;7.094;2023-09-08T02:50:04;5.40;;;3.92;;
11988;SDS011;6054;50.966;7.094;2023-09-08T02:52:33;5.15;;;4.20;;
11988;SDS011;6054;50.966;7.094;2023-09-08T02:55:00;4.72;;;4.32;;
11988;SDS011;6054;50.966;7.094;2023-09-08T02:57:27;5.82;;;3.60;;
11988;SDS011;6054;50.966;7.094;2023-09-08T02:59:54;4.43;;;3.95;;
11988;SDS011;6054;50.966;7.094;2023-09-08T03:02:21;5.43;;;4.68;;
11988;SDS011;6054;50.966;7.094;2023-09-08T03:04:48;5.53;;;4.05;;
11988;SDS011;6054;50.966;7.094;2023-09-08T03:07:16;4.70;;;4.30;;
11988;SDS011;6054;50.966;7.094;2023-09-08T03:09:44;5.10;;;4.50;;
11988;SDS011;6054;50.966;7.094;2023-09-08T03:12:10;5.32;;;4.40;;
11988;SDS011;6054;50.966;7.094;2023-09-08T03:14:37;5.63;;;4.43;;
11988;SDS011;6054;50.966;7.094;2023-09-08T03:17:04;4.88;;;4.47;;
11988;SDS011;6054;50.966;7.094;2023-09-08T03:19:31;4.97;;;4.50;;
11988;SDS011;6054;50.966;7.094;2023-09-08T03:21:57;5.13;;;4.50;;
11988;SDS011;6054;50.966;7.094;2023-09-08T03:24:24;4.32;;;4.00;;
11988;SDS011;6054;50.966;7.094;2023-09-08T03:26:52;8.00;;;4.63;;
11988;SDS011;6054;50.966;7.094;2023-09-08T03:29:19;6.32;;;4.78;;
11988;SDS011;6054;50.966;7.094;2023-09-08T03:31:46;4.93;;;4.53;;
11988;SDS011;6054;50.966;7.094;2023-09-08T03:34:12;5.63;;;4.82;;
11988;SDS011;6054;50.966;7.094;2023-09-08T03:36:39;5.32;;;4.78;;
11988;SDS011;6054;50.966;7.094;2023-09-08T03:39:06;4.80;;;4.45;;
11988;SDS011;6054;50.966;7.094;2023-09-08T03:41:34;4.50;;;3.90;;
11988;SDS011;6054;50.966;7.094;2023-09-08T03:44:02;9.55;;;4.60;;
11988;SDS011;6054;50.966;7.094;2023-09-08T03:46:29;5.22;;;4.47;;
11988;SDS011;6054;50.966;7.094;2023-09-08T03:48:56;5.20;;;4.43;;
11988;SDS011;6054;50.966;7.094;2023-09-08T03:51:25;5.03;;;4.47;;
11988;SDS011;6054;50.966;7.094;2023-09-08T03:53:52;4.80;;;4.30;;
11988;SDS011;6054;50.966;7.094;2023-09-08T03:56:19;7.32;;;4.68;;
11988;SDS011;6054;50.966;7.094;2023-09-08T03:58:46;5.32;;;4.65;;
11988;SDS011;6054;50.966;7.094;2023-09-08T04:01:14;9.75;;;5.32;;
11988;SDS011;6054;50.966;7.094;2023-09-08T04:03:41;6.72;;;4.40;;
11988;SDS011;6054;50.966;7.094;2023-09-08T04:06:08;7.35;;;4.57;;
11988;SDS011;6054;50.966;7.094;2023-09-08T04:08:35;5.05;;;4.60;;
11988;SDS011;6054;50.966;7.094;2023-09-08T04:11:02;4.90;;;4.30;;
11988;SDS011;6054;50.966;7.094;2023-09-08T04:13:28;5.18;;;4.70;;
11988;SDS011;6054;50.966;7.094;2023-09-08T04:15:55;5.70;;;4.82;;
11988;SDS011;6054;50.966;7.094;2023-09-08T04:18:23;7.63;;;4.47;;
11988;SDS011;6054;50.966;7.094;2023-09-08T04:20:50;5.00;;;4.50;;
11988;SDS011;6054;50.966;7.094;2023-09-08T04:23:17;4.43;;;4.13;;
11988;SDS011;6054;50.966;7.094;2023-09-08T04:25:43;4.50;;;4.20;;
11988;SDS011;6054;50.966;7.094;2023-09-08T04:28:10;4.85;;;4.45;;
11988;SDS011;6054;50.966;7.094;2023-09-08T04:30:37;7.13;;;4.63;;
11988;SDS011;6054;50.966;7.094;2023-09-08T04:33:04;5.63;;;4.78;;
11988;SDS011;6054;50.966;7.094;2023-09-08T04:35:32;4.88;;;4.32;;
11988;SDS011;6054;50.966;7.094;2023-09-08T04:37:59;4.78;;;4.20;;
11988;SDS011;6054;50.966;7.094;2023-09-08T04:40:26;5.20;;;4.35;;
11988;SDS011;6054;50.966;7.094;2023-09-08T04:42:52;5.28;;;3.75;;
11988;SDS011;6054;50.966;7.094;2023-09-08T04:45:19;5.05;;;4.55;;
11988;SDS011;6054;50.966;7.094;2023-09-08T04:47:46;5.20;;;4.57;;
11988;SDS011;6054;50.966;7.094;2023-09-08T04:50:12;4.88;;;4.30;;
11988;SDS011;6054;50.966;7.094;2023-09-08T04:52:41;5.75;;;4.28;;
11988;SDS011;6054;50.966;7.094;2023-09-08T04:55:08;5.82;;;4.43;;
11988;SDS011;6054;50.966;7.094;2023-09-08T04:57:35;5.35;;;4.90;;
11988;SDS011;6054;50.966;7.094;2023-09-08T05:00:02;5.25;;;4.70;;
11988;SDS011;6054;50.966;7.094;2023-09-08T05:02:29;5.20;;;4.53;;
11988;SDS011;6054;50.966;7.094;2023-09-08T05:04:56;4.63;;;4.00;;
11988;SDS011;6054;50.966;7.094;2023-09-08T05:07:22;4.72;;;4.32;;
11988;SDS011;6054;50.966;7.094;2023-09-08T05:09:51;4.85;;;4.50;;
11988;SDS011;6054;50.966;7.094;2023-09-08T05:12:17;4.75;;;4.35;;
11988;SDS011;6054;50.966;7.094;2023-09-08T05:14:44;4.72;;;4.30;;
11988;SDS011;6054;50.966;7.094;2023-09-08T05:17:11;6.15;;;4.43;;
11988;SDS011;6054;50.966;7.094;2023-09-08T05:19:37;5.03;;;4.18;;
11988;SDS011;6054;50.966;7.094;2023-09-08T05:22:05;4.88;;;4.35;;
11988;SDS011;6054;50.966;7.094;2023-09-08T05:24:32;3.88;;;3.58;;
11988;SDS011;6054;50.966;7.094;2023-09-08T05:27:00;4.28;;;3.80;;
11988;SDS011;6054;50.966;7.094;2023-09-08T05:29:27;4.20;;;3.80;;
11988;SDS011;6054;50.966;7.094;2023-09-08T05:31:53;4.43;;;4.03;;
11988;SDS011;6054;50.966;7.094;2023-09-08T05:34:20;4.93;;;4.53;;
11988;SDS011;6054;50.966;7.094;2023-09-08T05:36:47;4.20;;;3.85;;
11988;SDS011;6054;50.966;7.094;2023-09-08T05:39:14;4.15;;;3.85;;
11988;SDS011;6054;50.966;7.094;2023-09-08T05:41:43;4.45;;;4.05;;
11988;SDS011;6054;50.966;7.094;2023-09-08T05:44:11;4.63;;;4.18;;
11988;SDS011;6054;50.966;7.094;2023-09-08T05:46:38;4.32;;;3.90;;
11988;SDS011;6054;50.966;7.094;2023-09-08T05:49:05;4.88;;;4.45;;
11988;SDS011;6054;50.966;7.094;2023-09-08T05:51:32;4.55;;;4.15;;
11988;SDS011;6054;50.966;7.094;2023-09-08T05:53:59;5.30;;;4.80;;
11988;SDS011;6054;50.966;7.094;2023-09-08T05:56:26;4.65;;;3.88;;
11988;SDS011;6054;50.966;7.094;2023-09-08T05:58:55;4.72;;;4.13;;
11988;SDS011;6054;50.966;7.094;2023-09-08T06:01:24;4.25;;;3.90;;
11988;SDS011;6054;50.966;7.094;2023-09-08T06:03:51;5.32;;;4.25;;
11988;SDS011;6054;50.966;7.094;2023-09-08T06:06:19;5.25;;;4.20;;
11988;SDS011;6054;50.966;7.094;2023-09-08T06:08:46;6.93;;;4.18;;
11988;SDS011;6054;50.966;7.094;2023-09-08T06:11:13;5.38;;;4.18;;
11988;SDS011;6054;50.966;7.094;2023-09-08T06:13:39;5.22;;;4.72;;
11988;SDS011;6054;50.966;7.094;2023-09-08T06:16:07;4.60;;;4.13;;
11988;SDS011;6054;50.966;7.094;2023-09-08T06:18:35;4.60;;;4.20;;
11988;SDS011;6054;50.966;7.094;2023-09-08T06:21:05;4.95;;;4.20;;
11988;SDS011;6054;50.966;7.094;2023-09-08T06:23:32;4.72;;;4.18;;
11988;SDS011;6054;50.966;7.094;2023-09-08T06:25:58;6.20;;;4.57;;
11988;SDS011;6054;50.966;7.094;2023-09-08T06:28:26;5.53;;;4.68;;
11988;SDS011;6054;50.966;7.094;2023-09-08T06:30:53;6.03;;;5.00;;
11988;SDS011;6054;50.966;7.094;2023-09-08T06:33:20;6.53;;;4.38;;
11988;SDS011;6054;50.966;7.094;2023-09-08T06:35:48;5.43;;;4.50;;
11988;SDS011;6054;50.966;7.094;2023-09-08T06:38:15;5.15;;;4.70;;
11988;SDS011;6054;50.966;7.094;2023-09-08T06:40:42;4.75;;;4.32;;
11988;SDS011;6054;50.966;7.094;2023-09-08T06:43:09;7.10;;;4.70;;
11988;SDS011;6054;50.966;7.094;2023-09-08T06:45:37;4.85;;;4.45;;
11988;SDS011;6054;50.966;7.094;2023-09-08T06:48:04;4.50;;;4.10;;
11988;SDS011;6054;50.966;7.094;2023-09-08T06:50:31;4.55;;;4.15;;
11988;SDS011;6054;50.966;7.094;2023-09-08T06:52:59;5.60;;;4.32;;
11988;SDS011;6054;50.966;7.094;2023-09-08T06:55:26;5.13;;;4.25;;
11988;SDS011;6054;50.966;7.094;2023-09-08T06:57:53;4.50;;;4.10;;
11988;SDS011;6054;50.966;7.094;2023-09-08T07:00:20;7.45;;;4.68;;
11988;SDS011;6054;50.966;7.094;2023-09-08T07:02:47;5.07;;;4.57;;
11988;SDS011;6054;50.966;7.094;2023-09-08T07:05:15;8.57;;;4.78;;
11988;SDS011;6054;50.966;7.094;2023-09-08T07:07:41;4.18;;;3.85;;
11988;SDS011;6054;50.966;7.094;2023-09-08T07:10:10;5.72;;;4.07;;
11988;SDS011;6054;50.966;7.094;2023-09-08T07:12:37;4.18;;;3.72;;
11988;SDS011;6054;50.966;7.094;2023-09-08T07:15:04;4.32;;;3.90;;
11988;SDS011;6054;50.966;7.094;2023-09-08T07:17:31;4.13;;;3.75;;
11988;SDS011;6054;50.966;7.094;2023-09-08T07:19:58;3.80;;;3.50;;
11988;SDS011;6054;50.966;7.094;2023-09-08T07:22:25;5.47;;;3.38;;
11988;SDS011;6054;50.966;7.094;2023-09-08T07:24:52;3.92;;;3.33;;
11988;SDS011;6054;50.966;7.094;2023-09-08T07:27:20;4.25;;;3.85;;
11988;SDS011;6054;50.966;7.094;2023-09-08T07:29:46;6.05;;;3.67;;
11988;SDS011;6054;50.966;7.094;2023-09-08T07:32:14;4.40;;;3.65;;
11988;SDS011;6054;50.966;7.094;2023-09-08T07:34:41;3.90;;;3.60;;
11988;SDS011;6054;50.966;7.094;2023-09-08T07:37:08;5.00;;;3.40;;
11988;SDS011;6054;50.966;7.094;2023-09-08T07:39:35;3.88;;;3.58;;
11988;SDS011;6054;50.966;7.094;2023-09-08T07:42:01;4.95;;;3.30;;
11988;SDS011;6054;50.966;7.094;2023-09-08T07:44:30;3.67;;;3.38;;
11988;SDS011;6054;50.966;7.094;2023-09-08T07:46:57;5.30;;;3.33;;
11988;SDS011;6054;50.966;7.094;2023-09-08T07:49:23;6.30;;;3.72;;
11988;SDS011;6054;50.966;7.094;2023-09-08T07:51:50;4.63;;;3.33;;
11988;SDS011;6054;50.966;7.094;2023-09-08T07:54:17;4.28;;;3.33;;
11988;SDS011;6054;50.966;7.094;2023-09-08T07:56:44;3.60;;;3.30;;
11988;SDS011;6054;50.966;7.094;2023-09-08T07:59:10;4.28;;;3.92;;
11988;SDS011;6054;50.966;7.094;2023-09-08T08:01:38;3.88;;;3.45;;
11988;SDS011;6054;50.966;7.094;2023-09-08T08:04:05;3.88;;;3.58;;
11988;SDS011;6054;50.966;7.094;2023-09-08T08:06:32;3.75;;;3.45;;
11988;SDS011;6054;50.966;7.094;2023-09-08T08:08:58;4.18;;;3.53;;
11988;SDS011;6054;50.966;7.094;2023-09-08T08:11:25;6.57;;;3.55;;
11988;SDS011;6054;50.966;7.094;2023-09-08T08:13:53;5.28;;;3.55;;
11988;SDS011;6054;50.966;7.094;2023-09-08T08:16:21;4.43;;;3.13;;
11988;SDS011;6054;50.966;7.094;2023-09-08T08:18:49;4.20;;;3.78;;
11988;SDS011;6054;50.966;7.094;2023-09-08T08:21:16;3.75;;;3.42;;
11988;SDS011;6054;50.966;7.094;2023-09-08T08:23:43;3.70;;;3.40;;
11988;SDS011;6054;50.966;7.094;2023-09-08T08:26:10;3.50;;;3.20;;
11988;SDS011;6054;50.966;7.094;2023-09-08T08:28:36;4.97;;;3.40;;
11988;SDS011;6054;50.966;7.094;2023-09-08T08:31:03;4.00;;;3.65;;
11988;SDS011;6054;50.966;7.094;2023-09-08T08:33:30;3.83;;;3.53;;
11988;SDS011;6054;50.966;7.094;2023-09-08T08:35:58;4.38;;;3.83;;
11988;SDS011;6054;50.966;7.094;2023-09-08T08:38:25;5.22;;;3.33;;
11988;SDS011;6054;50.966;7.094;2023-09-08T08:40:52;3.45;;;3.15;;
11988;SDS011;6054;50.966;7.094;2023-09-08T08:43:18;3.50;;;3.30;;
11988;SDS011;6054;50.966;7.094;2023-09-08T08:45:46;4.57;;;3.58;;
11988;SDS011;6054;50.966;7.094;2023-09-08T08:48:14;4.00;;;3.58;;
11988;SDS011;6054;50.966;7.094;2023-09-08T08:50:44;7.13;;;3.40;;
11988;SDS011;6054;50.966;7.094;2023-09-08T08:53:12;4.07;;;3.70;;
11988;SDS011;6054;50.966;7.094;2023-09-08T08:55:39;4.35;;;3.15;;
11988;SDS011;6054;50.966;7.094;2023-09-08T08:58:06;4.63;;;3.63;;
11988;SDS011;6054;50.966;7.094;2023-09-08T09:00:33;5.45;;;3.67;;
11988;SDS011;6054;50.966;7.094;2023-09-08T09:03:01;5.80;;;3.22;;
11988;SDS011;6054;50.966;7.094;2023-09-08T09:05:30;3.80;;;3.40;;
11988;SDS011;6054;50.966;7.094;2023-09-08T09:07:57;5.40;;;3.42;;
11988;SDS011;6054;50.966;7.094;2023-09-08T09:10:29;3.78;;;3.40;;
11988;SDS011;6054;50.966;7.094;2023-09-08T09:12:56;7.47;;;3.20;;
11988;SDS011;6054;50.966;7.094;2023-09-08T09:15:27;4.25;;;3.47;;
11988;SDS011;6054;50.966;7.094;2023-09-08T09:18:02;6.03;;;3.58;;
11988;SDS011;6054;50.966;7.094;2023-09-08T09:20:29;4.43;;;3.67;;
11988;SDS011;6054;50.966;7.094;2023-09-08T09:22:56;4.85;;;3.78;;
11988;SDS011;6054;50.966;7.094;2023-09-08T09:25:24;4.00;;;3.60;;
11988;SDS011;6054;50.966;7.094;2023-09-08T09:27:53;4.68;;;3.50;;
11988;SDS011;6054;50.966;7.094;2023-09-08T09:30:21;3.90;;;3.60;;
11988;SDS011;6054;50.966;7.094;2023-09-08T09:32:49;4.35;;;3.95;;
11988;SDS011;6054;50.966;7.094;2023-09-08T09:35:39;4.07;;;3.70;;
11988;SDS011;6054;50.966;7.094;2023-09-08T09:38:06;5.63;;;3.95;;
11988;SDS011;6054;50.966;7.094;2023-09-08T09:40:33;4.68;;;4.20;;
11988;SDS011;6054;50.966;7.094;2023-09-08T09:43:01;4.13;;;3.72;;
11988;SDS011;6054;50.966;7.094;2023-09-08T09:45:29;7.13;;;3.80;;
11988;SDS011;6054;50.966;7.094;2023-09-08T09:47:56;4.80;;;3.83;;
11988;SDS011;6054;50.966;7.094;2023-09-08T09:50:27;4.05;;;3.40;;
11988;SDS011;6054;50.966;7.094;2023-09-08T09:52:56;5.10;;;3.97;;
11988;SDS011;6054;50.966;7.094;2023-09-08T09:55:24;4.38;;;3.80;;
11988;SDS011;6054;50.966;7.094;2023-09-08T09:57:53;3.72;;;3.53;;
11988;SDS011;6054;50.966;7.094;2023-09-08T10:00:24;10.80;;;3.88;;
11988;SDS011;6054;50.966;7.094;2023-09-08T10:02:51;4.10;;;3.70;;
11988;SDS011;6054;50.966;7.094;2023-09-08T10:05:19;4.88;;;4.13;;
11988;SDS011;6054;50.966;7.094;2023-09-08T10:07:46;7.88;;;5.68;;
11988;SDS011;6054;50.966;7.094;2023-09-08T10:10:13;3.70;;;3.50;;
11988;SDS011;6054;50.966;7.094;2023-09-08T10:12:41;5.60;;;3.83;;
11988;SDS011;6054;50.966;7.094;2023-09-08T10:15:10;4.00;;;3.53;;
11988;SDS011;6054;50.966;7.094;2023-09-08T10:17:39;5.15;;;3.70;;
11988;SDS011;6054;50.966;7.094;2023-09-08T10:20:07;5.20;;;3.50;;
11988;SDS011;6054;50.966;7.094;2023-09-08T10:22:37;4.78;;;3.67;;
11988;SDS011;6054;50.966;7.094;2023-09-08T10:25:07;4.15;;;3.85;;
11988;SDS011;6054;50.966;7.094;2023-09-08T10:27:35;4.43;;;3.47;;
11988;SDS011;6054;50.966;7.094;2023-09-08T10:30:03;3.92;;;3.63;;
11988;SDS011;6054;50.966;7.094;2023-09-08T10:32:31;4.57;;;3.42;;
11988;SDS011;6054;50.966;7.094;2023-09-08T10:35:01;4.00;;;3.47;;
11988;SDS011;6054;50.966;7.094;2023-09-08T10:37:29;5.00;;;3.33;;
11988;SDS011;6054;50.966;7.094;2023-09-08T10:40:01;4.18;;;3.78;;
11988;SDS011;6054;50.966;7.094;2023-09-08T10:42:47;3.90;;;3.60;;
11988;SDS011;6054;50.966;7.094;2023-09-08T10:45:14;3.80;;;3.55;;
11988;SDS011;6054;50.966;7.094;2023-09-08T10:47:54;5.50;;;3.60;;
11988;SDS011;6054;50.966;7.094;2023-09-08T10:50:29;4.30;;;3.95;;
11988;SDS011;6054;50.966;7.094;2023-09-08T10:53:04;4.18;;;3.90;;
11988;SDS011;6054;50.966;7.094;2023-09-08T10:55:36;4.25;;;3.75;;
11988;SDS011;6054;50.966;7.094;2023-09-08T10:58:03;4.40;;;3.67;;
11988;SDS011;6054;50.966;7.094;2023-09-08T11:00:42;5.35;;;3.75;;
11988;SDS011;6054;50.966;7.094;2023-09-08T11:03:10;5.93;;;3.95;;
11988;SDS011;6054;50.966;7.094;2023-09-08T11:05:39;4.15;;;3.85;;
11988;SDS011;6054;50.966;7.094;2023-09-08T11:08:07;4.45;;;3.90;;
11988;SDS011;6054;50.966;7.094;2023-09-08T11:10:34;3.95;;;3.55;;
11988;SDS011;6054;50.966;7.094;2023-09-08T11:13:02;4.72;;;3.72;;
11988;SDS011;6054;50.966;7.094;2023-09-08T11:15:31;4.85;;;4.43;;
11988;SDS011;6054;50.966;7.094;2023-09-08T11:18:02;6.22;;;4.07;;
11988;SDS011;6054;50.966;7.094;2023-09-08T11:20:31;6.55;;;3.50;;
11988;SDS011;6054;50.966;7.094;2023-09-08T11:22:59;5.38;;;3.83;;
11988;SDS011;6054;50.966;7.094;2023-09-08T11:25:26;4.10;;;3.70;;
11988;SDS011;6054;50.966;7.094;2023-09-08T11:27:53;4.18;;;3.67;;
11988;SDS011;6054;50.966;7.094;2023-09-08T11:30:20;4.32;;;4.03;;
11988;SDS011;6054;50.966;7.094;2023-09-08T11:32:47;3.70;;;3.50;;
11988;SDS011;6054;50.966;7.094;2023-09-08T11:35:14;5.18;;;4.10;;
11988;SDS011;6054;50.966;7.094;2023-09-08T11:37:41;3.88;;;3.58;;
11988;SDS011;6054;50.966;7.094;2023-09-08T11:40:09;8.05;;;3.97;;
11988;SDS011;6054;50.966;7.094;2023-09-08T11:42:38;3.97;;;3.67;;
11988;SDS011;6054;50.966;7.094;2023-09-08T11:45:09;5.80;;;3.90;;
11988;SDS011;6054;50.966;7.094;2023-09-08T11:47:39;5.22;;;4.18;;
11988;SDS011;6054;50.966;7.094;2023-09-08T11:50:07;4.13;;;3.78;;
11988;SDS011;6054;50.966;7.094;2023-09-08T11:52:36;4.00;;;3.72;;
11988;SDS011;6054;50.966;7.094;2023-09-08T11:55:03;5.10;;;3.92;;
11988;SDS011;6054;50.966;7.094;2023-09-08T11:57:32;5.13;;;4.25;;
11988;SDS011;6054;50.966;7.094;2023-09-08T12:00:00;4.13;;;3.83;;
11988;SDS011;6054;50.966;7.094;2023-09-08T12:02:33;4.20;;;3.80;;
11988;SDS011;6054;50.966;7.094;2023-09-08T12:05:01;4.85;;;3.83;;
11988;SDS011;6054;50.966;7.094;2023-09-08T12:07:28;4.10;;;3.80;;
11988;SDS011;6054;50.966;7.094;2023-09-08T12:09:55;4.78;;;4.15;;
11988;SDS011;6054;50.966;7.094;2023-09-08T12:12:24;5.15;;;3.85;;
11988;SDS011;6054;50.966;7.094;2023-09-08T12:14:52;3.97;;;3.67;;
11988;SDS011;6054;50.966;7.094;2023-09-08T12:17:20;3.85;;;3.53;;
11988;SDS011;6054;50.966;7.094;2023-09-08T12:19:49;3.75;;;3.45;;
11988;SDS011;6054;50.966;7.094;2023-09-08T12:22:16;3.80;;;3.60;;
11988;SDS011;6054;50.966;7.094;2023-09-08T12:24:47;4.25;;;3.85;;
11988;SDS011;6054;50.966;7.094;2023-09-08T12:27:15;4.00;;;3.70;;
11988;SDS011;6054;50.966;7.094;2023-09-08T12:29:52;4.68;;;3.95;;
11988;SDS011;6054;50.966;7.094;2023-09-08T12:32:20;4.72;;;3.88;;
11988;SDS011;6054;50.966;7.094;2023-09-08T12:34:46;4.10;;;3.80;;
11988;SDS011;6054;50.966;7.094;2023-09-08T12:37:13;4.07;;;3.78;;
11988;SDS011;6054;50.966;7.094;2023-09-08T12:39:40;3.90;;;3.60;;
11988;SDS011;6054;50.966;7.094;2023-09-08T12:42:07;4.93;;;4.28;;
11988;SDS011;6054;50.966;7.094;2023-09-08T12:44:33;4.57;;;3.63;;
11988;SDS011;6054;50.966;7.094;2023-09-08T12:47:01;3.95;;;3.65;;
11988;SDS011;6054;50.966;7.094;2023-09-08T12:49:28;6.90;;;3.92;;
11988;SDS011;6054;50.966;7.094;2023-09-08T12:51:55;5.80;;;3.67;;
11988;SDS011;6054;50.966;7.094;2023-09-08T12:54:22;3.95;;;3.65;;
11988;SDS011;6054;50.966;7.094;2023-09-08T12:56:49;6.70;;;3.83;;
11988;SDS011;6054;50.966;7.094;2023-09-08T12:59:16;4.50;;;3.72;;
11988;SDS011;6054;50.966;7.094;2023-09-08T13:01:43;4.10;;;3.80;;
11988;SDS011;6054;50.966;7.094;2023-09-08T13:04:11;4.60;;;3.70;;
11988;SDS011;6054;50.966;7.094;2023-09-08T13:06:37;4.45;;;4.05;;
11988;SDS011;6054;50.966;7.094;2023-09-08T13:09:04;5.65;;;3.60;;
11988;SDS011;6054;50.966;7.094;2023-09-08T13:11:32;4.32;;;3.97;;
11988;SDS011;6054;50.966;7.094;2023-09-08T13:13:59;4.05;;;3.70;;
11988;SDS011;6054;50.966;7.094;2023-09-08T13:16:25;5.32;;;4.07;;
11988;SDS011;6054;50.966;7.094;2023-09-08T13:18:52;4.57;;;3.80;;
11988;SDS011;6054;50.966;7.094;2023-09-08T13:21:20;4.20;;;3.90;;
11988;SDS011;6054;50.966;7.094;2023-09-08T13:23:47;4.05;;;3.75;;
11988;SDS011;6054;50.966;7.094;2023-09-08T13:26:14;4.00;;;3.70;;
11988;SDS011;6054;50.966;7.094;2023-09-08T13:28:41;4.93;;;3.67;;
11988;SDS011;6054;50.966;7.094;2023-09-08T13:31:08;4.80;;;4.00;;
11988;SDS011;6054;50.966;7.094;2023-09-08T13:33:35;3.97;;;3.67;;
11988;SDS011;6054;50.966;7.094;2023-09-08T13:36:01;3.83;;;3.53;;
11988;SDS011;6054;50.966;7.094;2023-09-08T13:38:30;4.10;;;3.80;;
11988;SDS011;6054;50.966;7.094;2023-09-08T13:40:56;5.32;;;4.03;;
11988;SDS011;6054;50.966;7.094;2023-09-08T13:43:23;3.90;;;3.60;;
11988;SDS011;6054;50.966;7.094;2023-09-08T13:45:50;4.93;;;3.85;;
11988;SDS011;6054;50.966;7.094;2023-09-08T13:48:17;4.47;;;3.97;;
11988;SDS011;6054;50.966;7.094;2023-09-08T13:50:44;4.32;;;3.80;;
11988;SDS011;6054;50.966;7.094;2023-09-08T13:53:10;5.10;;;3.65;;
11988;SDS011;6054;50.966;7.094;2023-09-08T13:55:38;3.47;;;3.17;;
11988;SDS011;6054;50.966;7.094;2023-09-08T13:58:05;8.15;;;3.80;;
11988;SDS011;6054;50.966;7.094;2023-09-08T14:00:32;5.78;;;3.80;;
11988;SDS011;6054;50.966;7.094;2023-09-08T14:02:58;4.18;;;3.88;;
11988;SDS011;6054;50.966;7.094;2023-09-08T14:05:25;4.07;;;3.60;;
11988;SDS011;6054;50.966;7.094;2023-09-08T14:07:52;4.25;;;3.50;;
11988;SDS011;6054;50.966;7.094;2023-09-08T14:10:18;4.03;;;3.50;;
11988;SDS011;6054;50.966;7.094;2023-09-08T14:12:46;3.90;;;3.55;;
11988;SDS011;6054;50.966;7.094;2023-09-08T14:15:14;4.97;;;4.53;;
11988;SDS011;6054;50.966;7.094;2023-09-08T14:17:41;3.95;;;3.70;;
11988;SDS011;6054;50.966;7.094;2023-09-08T14:20:08;4.20;;;3.80;;
11988;SDS011;6054;50.966;7.094;2023-09-08T14:22:36;4.03;;;3.72;;
11988;SDS011;6054;50.966;7.094;2023-09-08T14:25:03;4.43;;;3.85;;
11988;SDS011;6054;50.966;7.094;2023-09-08T14:27:30;7.03;;;4.05;;
11988;SDS011;6054;50.966;7.094;2023-09-08T14:30:00;3.67;;;3.22;;
11988;SDS011;6054;50.966;7.094;2023-09-08T14:32:27;4.20;;;3.88;;
11988;SDS011;6054;50.966;7.094;2023-09-08T14:34:53;6.13;;;3.75;;
11988;SDS011;6054;50.966;7.094;2023-09-08T14:37:21;4.20;;;3.90;;
11988;SDS011;6054;50.966;7.094;2023-09-08T14:39:47;3.85;;;3.58;;
11988;SDS011;6054;50.966;7.094;2023-09-08T14:42:14;4.60;;;4.03;;
11988;SDS011;6054;50.966;7.094;2023-09-08T14:44:41;4.45;;;3.47;;
11988;SDS011;6054;50.966;7.094;2023-09-08T14:47:09;3.75;;;3.45;;
11988;SDS011;6054;50.966;7.094;2023-09-08T14:49:37;5.47;;;3.70;;
11988;SDS011;6054;50.966;7.094;2023-09-08T14:52:05;4.15;;;3.70;;
11988;SDS011;6054;50.966;7.094;2023-09-08T14:54:31;4.10;;;3.67;;
11988;SDS011;6054;50.966;7.094;2023-09-08T14:56:58;4.30;;;3.67;;
11988;SDS011;6054;50.966;7.094;2023-09-08T14:59:25;4.82;;;4.10;;
11988;SDS011;6054;50.966;7.094;2023-09-08T15:01:51;4.57;;;3.58;;
11988;SDS011;6054;50.966;7.094;2023-09-08T15:04:20;5.70;;;3.95;;